createdAt,value
2019-04-16T00:01:11.289Z,11.85
2019-04-16T00:03:40.485Z,13.18
2019-04-16T00:06:15.479Z,11.95
2019-04-16T00:08:54.142Z,12.18
2019-04-16T00:11:41.129Z,12.55
2019-04-16T00:14:36.991Z,12.18
2019-04-16T00:17:04.992Z,11.97
2019-04-16T00:19:34.723Z,12.78
2019-04-16T00:22:28.614Z,12.35
2019-04-16T00:24:57.505Z,12.50
2019-04-16T00:27:28.300Z,12.50
2019-04-16T00:29:55.154Z,12.43
2019-04-16T00:32:28.938Z,12.78
2019-04-16T00:34:56.902Z,12.10
2019-04-16T00:37:24.923Z,11.95
2019-04-16T00:39:55.569Z,12.88
2019-04-16T00:42:22.539Z,13.20
2019-04-16T00:44:50.515Z,12.50
2019-04-16T00:47:18.503Z,12.50
2019-04-16T00:49:46.458Z,13.22
2019-04-16T00:52:14.755Z,12.93
2019-04-16T00:54:43.243Z,12.13
2019-04-16T00:57:11.341Z,12.70
2019-04-16T00:59:39.246Z,12.35
2019-04-16T01:02:07.225Z,13.08
2019-04-16T01:04:35.183Z,12.60
2019-04-16T01:07:03.176Z,12.98
2019-04-16T01:09:31.423Z,14.28
2019-04-16T01:11:59.364Z,13.68
2019-04-16T01:14:27.462Z,14.47
2019-04-16T01:16:55.454Z,14.95
2019-04-16T01:19:23.404Z,14.18
2019-04-16T01:21:51.287Z,13.45
2019-04-16T01:24:20.301Z,13.32
2019-04-16T01:26:49.057Z,13.15
2019-04-16T01:29:18.307Z,12.70
2019-04-16T01:32:17.636Z,12.60
2019-04-16T01:35:19.037Z,13.15
2019-04-16T01:38:04.109Z,12.45
2019-04-16T01:43:07.763Z,12.23
2019-04-16T01:45:35.769Z,13.22
2019-04-16T01:48:07.064Z,11.83
2019-04-16T01:50:33.531Z,11.70
2019-04-16T01:53:01.530Z,12.15
2019-04-16T01:55:29.491Z,13.30
2019-04-16T01:57:59.629Z,12.88
2019-04-16T02:00:27.030Z,12.43
2019-04-16T02:02:55.262Z,12.88
2019-04-16T02:05:23.926Z,12.63
2019-04-16T02:07:51.914Z,12.05
2019-04-16T02:10:19.844Z,12.33
2019-04-16T02:12:47.827Z,12.90
2019-04-16T02:15:15.807Z,13.20
2019-04-16T02:17:43.840Z,12.45
2019-04-16T02:20:11.836Z,12.35
2019-04-16T02:22:42.240Z,13.43
2019-04-16T02:25:09.511Z,12.78
2019-04-16T02:27:37.408Z,12.30
2019-04-16T02:30:05.896Z,12.98
2019-04-16T02:32:34.133Z,12.80
2019-04-16T02:35:02.673Z,13.20
2019-04-16T02:37:35.434Z,13.60
2019-04-16T02:40:00.839Z,13.05
2019-04-16T02:42:32.031Z,13.18
2019-04-16T02:44:58.449Z,13.53
2019-04-16T02:47:26.385Z,13.60
2019-04-16T02:49:56.784Z,13.53
2019-04-16T02:52:34.252Z,12.03
2019-04-16T02:55:23.968Z,12.68
2019-04-16T02:58:10.896Z,13.98
2019-04-16T03:00:56.089Z,13.80
2019-04-16T03:03:30.020Z,13.08
2019-04-16T03:06:00.719Z,13.53
2019-04-16T03:08:27.342Z,13.28
2019-04-16T03:10:55.269Z,14.10
2019-04-16T03:13:23.973Z,13.13
2019-04-16T03:16:10.883Z,12.13
2019-04-16T03:18:46.901Z,13.45
2019-04-16T03:21:13.157Z,12.85
2019-04-16T03:23:41.453Z,12.78
2019-04-16T03:26:09.460Z,13.68
2019-04-16T03:28:37.449Z,14.07
2019-04-16T03:31:09.396Z,13.53
2019-04-16T03:33:37.037Z,12.93
2019-04-16T03:36:05.353Z,13.03
2019-04-16T03:38:36.705Z,13.50
2019-04-16T03:41:03.126Z,13.68
2019-04-16T03:43:32.821Z,12.60
2019-04-16T03:46:01.005Z,13.35
2019-04-16T03:48:29.041Z,13.62
2019-04-16T03:50:57.122Z,12.98
2019-04-16T03:53:25.178Z,12.53
2019-04-16T03:55:54.607Z,13.95
2019-04-16T03:58:23.485Z,13.40
2019-04-16T04:00:51.470Z,12.68
2019-04-16T04:03:19.468Z,13.35
2019-04-16T04:05:55.241Z,14.25
2019-04-16T04:08:23.311Z,13.53
2019-04-16T04:10:51.303Z,13.80
2019-04-16T04:13:19.335Z,14.35
2019-04-16T04:15:47.263Z,13.15
2019-04-16T04:18:15.276Z,13.83
2019-04-16T04:20:43.262Z,13.80
2019-04-16T04:23:11.199Z,13.03
2019-04-16T04:25:39.153Z,13.28
2019-04-16T04:28:07.411Z,13.62
2019-04-16T04:30:35.351Z,13.22
2019-04-16T04:33:07.656Z,13.00
2019-04-16T04:35:33.258Z,13.45
2019-04-16T04:38:04.110Z,13.20
2019-04-16T04:40:43.782Z,12.82
2019-04-16T04:43:01.020Z,14.28
2019-04-16T04:45:29.652Z,12.85
2019-04-16T04:47:57.624Z,12.98
2019-04-16T04:50:25.611Z,13.45
2019-04-16T04:52:53.505Z,13.95
2019-04-16T04:55:25.645Z,13.78
2019-04-16T04:57:51.126Z,13.30
2019-04-16T05:00:19.061Z,13.98
2019-04-16T05:02:46.944Z,14.25
2019-04-16T05:05:35.403Z,13.72
2019-04-16T05:08:03.426Z,13.10
2019-04-16T05:10:31.335Z,13.93
2019-04-16T05:12:59.257Z,13.70
2019-04-16T05:15:29.399Z,13.58
2019-04-16T05:17:56.917Z,14.15
2019-04-16T05:20:24.891Z,12.70
2019-04-16T05:22:53.587Z,13.35
2019-04-16T05:25:22.630Z,14.03
2019-04-16T05:27:50.691Z,14.53
2019-04-16T05:30:21.054Z,13.35
2019-04-16T05:32:48.194Z,14.43
2019-04-16T05:35:17.748Z,14.00
2019-04-16T05:37:48.552Z,14.68
2019-04-16T05:40:15.485Z,23.35
2019-04-16T05:42:43.388Z,28.27
2019-04-16T05:45:11.499Z,25.68
2019-04-16T05:47:39.666Z,22.25
2019-04-16T05:50:07.633Z,17.98
2019-04-16T05:52:36.571Z,15.35
2019-04-16T05:55:23.354Z,15.40
2019-04-16T05:57:51.376Z,14.20
2019-04-16T06:00:41.188Z,13.75
2019-04-16T06:03:08.017Z,14.00
2019-04-16T06:05:35.964Z,13.88
2019-04-16T06:08:11.135Z,14.75
2019-04-16T06:10:38.517Z,13.60
2019-04-16T06:13:24.327Z,14.47
2019-04-16T06:16:11.266Z,13.48
2019-04-16T06:18:49.735Z,14.43
2019-04-16T06:21:32.735Z,14.23
2019-04-16T06:24:22.572Z,14.05
2019-04-16T06:27:08.172Z,14.28
2019-04-16T06:32:40.359Z,14.55
2019-04-16T06:35:42.548Z,14.85
2019-04-16T06:38:06.006Z,14.38
2019-04-16T06:40:51.507Z,14.93
2019-04-16T06:43:25.227Z,14.35
2019-04-16T06:46:23.254Z,13.55
2019-04-16T06:49:08.854Z,14.65
2019-04-16T06:52:04.504Z,14.45
2019-04-16T06:54:45.246Z,14.35
2019-04-16T06:57:19.921Z,14.58
2019-04-16T07:00:02.532Z,14.07
2019-04-16T07:03:02.166Z,14.58
2019-04-16T07:05:39.591Z,13.53
2019-04-16T07:08:36.802Z,14.18
2019-04-16T07:10:57.239Z,13.95
2019-04-16T07:13:25.719Z,13.90
2019-04-16T07:15:57.003Z,14.13
2019-04-16T07:18:23.511Z,14.65
2019-04-16T07:20:51.360Z,13.80
2019-04-16T07:23:24.321Z,15.23
2019-04-16T07:25:49.550Z,15.78
2019-04-16T07:28:26.823Z,16.12
2019-04-16T07:31:32.682Z,17.17
2019-04-16T07:34:05.507Z,15.85
2019-04-16T07:37:00.698Z,15.35
2019-04-16T07:39:37.862Z,14.78
2019-04-16T07:42:22.235Z,14.20
2019-04-16T07:45:00.323Z,14.53
2019-04-16T07:47:48.342Z,13.65
2019-04-16T07:50:44.749Z,14.25
2019-04-16T07:53:29.991Z,13.60
2019-04-16T07:56:00.685Z,13.10
2019-04-16T07:58:28.557Z,13.95
2019-04-16T08:00:56.528Z,13.58
2019-04-16T08:03:26.806Z,12.90
2019-04-16T08:05:54.049Z,13.68
2019-04-16T08:08:24.742Z,14.33
2019-04-16T08:10:51.584Z,13.45
2019-04-16T08:13:24.270Z,13.13
2019-04-16T08:15:52.247Z,13.68
2019-04-16T08:18:20.250Z,13.68
2019-04-16T08:21:00.538Z,13.83
2019-04-16T08:23:51.458Z,13.98
2019-04-16T08:26:15.808Z,14.00
2019-04-16T08:28:45.352Z,14.18
2019-04-16T08:31:19.927Z,14.28
2019-04-16T08:33:47.324Z,14.50
2019-04-16T08:36:15.321Z,14.70
2019-04-16T08:38:43.277Z,13.20
2019-04-16T08:41:13.206Z,14.95
2019-04-16T08:43:40.875Z,14.65
2019-04-16T08:46:11.254Z,14.13
2019-04-16T08:48:38.580Z,14.98
2019-04-16T08:51:06.576Z,15.58
2019-04-16T08:53:35.773Z,15.18
2019-04-16T08:56:03.872Z,14.30
2019-04-16T08:58:31.756Z,14.28
2019-04-16T09:00:59.757Z,13.80
2019-04-16T09:03:30.072Z,14.15
2019-04-16T09:05:57.439Z,14.35
2019-04-16T09:08:38.834Z,13.93
2019-04-16T09:11:06.831Z,14.85
2019-04-16T09:13:41.097Z,13.68
2019-04-16T09:16:10.593Z,14.30
2019-04-16T09:18:46.025Z,14.47
2019-04-16T09:21:14.478Z,14.55
2019-04-16T09:23:44.509Z,14.00
2019-04-16T09:26:28.822Z,13.58
2019-04-16T09:29:25.012Z,14.05
2019-04-16T09:35:08.880Z,14.85
2019-04-16T09:37:57.817Z,15.40
2019-04-16T09:40:44.770Z,14.95
2019-04-16T09:43:18.028Z,15.03
2019-04-16T09:45:46.146Z,15.28
2019-04-16T09:48:14.122Z,15.50
2019-04-16T09:50:46.390Z,13.72
2019-04-16T09:53:11.649Z,14.10
2019-04-16T09:55:39.749Z,14.60
2019-04-16T09:58:16.370Z,14.60
2019-04-16T10:00:47.271Z,13.75
2019-04-16T10:03:46.729Z,13.98
2019-04-16T10:06:14.856Z,13.98
2019-04-16T10:08:44.913Z,14.40
2019-04-16T10:11:12.567Z,13.98
2019-04-16T10:13:40.529Z,14.28
2019-04-16T10:16:08.573Z,13.45
2019-04-16T10:18:39.409Z,13.48
2019-04-16T10:21:07.318Z,14.05
2019-04-16T10:24:03.378Z,12.03
2019-04-16T10:26:31.085Z,13.30
2019-04-16T10:29:00.501Z,13.28
2019-04-16T10:31:28.567Z,12.18
2019-04-16T10:33:56.611Z,12.65
2019-04-16T10:36:24.529Z,12.35
2019-04-16T10:39:07.229Z,11.43
2019-04-16T10:41:57.307Z,11.15
2019-04-16T10:44:44.318Z,9.25
2019-04-16T10:47:37.210Z,8.65
2019-04-16T10:50:21.919Z,9.18
2019-04-16T10:53:06.486Z,8.90
2019-04-16T10:55:49.470Z,9.03
2019-04-16T10:58:30.576Z,9.68
2019-04-16T11:01:06.975Z,9.98
2019-04-16T11:03:48.236Z,10.68
2019-04-16T11:06:35.155Z,9.65
2019-04-16T11:09:04.895Z,9.70
2019-04-16T11:11:52.013Z,9.90
2019-04-16T11:14:20.024Z,9.70
2019-04-16T11:16:50.735Z,10.05
2019-04-16T11:19:18.799Z,9.95
2019-04-16T11:21:46.785Z,9.45
2019-04-16T11:24:15.759Z,9.15
2019-04-16T11:26:44.568Z,9.58
2019-04-16T11:29:12.687Z,8.65
2019-04-16T11:31:40.692Z,9.35
2019-04-16T11:34:09.972Z,9.33
2019-04-16T11:36:37.958Z,9.48
2019-04-16T11:39:06.143Z,9.78
2019-04-16T11:41:34.131Z,9.93
2019-04-16T11:44:14.244Z,10.20
2019-04-16T11:46:31.801Z,9.98
2019-04-16T11:48:59.831Z,10.18
2019-04-16T11:51:27.810Z,10.13
2019-04-16T11:53:55.747Z,10.00
2019-04-16T11:56:23.713Z,10.32
2019-04-16T11:58:51.722Z,10.05
2019-04-16T12:01:39.740Z,10.18
2019-04-16T12:04:16.896Z,9.33
2019-04-16T12:07:06.603Z,10.08
2019-04-16T12:09:41.199Z,10.30
2019-04-16T12:12:15.909Z,10.15
2019-04-16T12:14:57.954Z,9.10
2019-04-16T12:18:03.532Z,9.00
2019-04-16T12:20:46.329Z,9.33
2019-04-16T12:23:51.556Z,8.10
2019-04-16T12:26:50.610Z,8.05
2019-04-16T12:29:43.461Z,7.70
2019-04-16T12:32:36.407Z,9.35
2019-04-16T12:35:31.113Z,7.37
2019-04-16T12:38:27.460Z,7.20
2019-04-16T12:41:11.949Z,7.20
2019-04-16T12:43:43.878Z,7.10
2019-04-16T12:46:40.085Z,6.70
2019-04-16T12:49:26.348Z,7.58
2019-04-16T12:52:07.130Z,10.50
2019-04-16T12:54:47.700Z,10.23
2019-04-16T12:57:25.914Z,6.15
2019-04-16T13:00:17.249Z,6.08
2019-04-16T13:02:55.422Z,5.70
2019-04-16T13:05:44.446Z,5.78
2019-04-16T13:08:32.981Z,6.85
2019-04-16T13:11:18.986Z,9.05
2019-04-16T13:14:04.814Z,7.33
2019-04-16T13:16:50.704Z,6.78
2019-04-16T13:19:49.857Z,7.10
2019-04-16T13:22:18.786Z,5.85
2019-04-16T13:25:08.726Z,5.97
2019-04-16T13:27:38.068Z,5.37
2019-04-16T13:30:06.163Z,14.98
2019-04-16T13:32:34.159Z,5.67
2019-04-16T13:35:03.160Z,10.43
2019-04-16T13:37:36.924Z,36.77
2019-04-16T13:40:06.754Z,13.43
2019-04-16T13:42:34.722Z,7.03
2019-04-16T13:45:17.554Z,6.30
2019-04-16T13:47:47.228Z,5.42
2019-04-16T13:50:40.830Z,5.55
2019-04-16T13:53:16.919Z,4.70
2019-04-16T13:55:54.876Z,20.30
2019-04-16T13:58:56.115Z,23.95
2019-04-16T14:01:26.913Z,8.98
2019-04-16T14:03:56.382Z,9.15
2019-04-16T14:06:24.733Z,10.48
2019-04-16T14:08:53.073Z,9.53
2019-04-16T14:11:22.146Z,5.92
2019-04-16T14:13:50.384Z,5.45
2019-04-16T14:16:18.433Z,4.50
2019-04-16T14:18:46.295Z,4.75
2019-04-16T14:21:14.235Z,5.17
2019-04-16T14:23:42.204Z,5.28
2019-04-16T14:26:10.188Z,5.40
2019-04-16T14:28:51.186Z,5.72
2019-04-16T14:31:07.757Z,6.03
2019-04-16T14:33:52.568Z,5.50
2019-04-16T14:36:19.905Z,5.77
2019-04-16T14:38:52.031Z,6.12
2019-04-16T14:41:19.907Z,5.67
2019-04-16T14:43:51.363Z,5.50
2019-04-16T14:46:19.355Z,6.00
2019-04-16T14:48:47.391Z,5.28
2019-04-16T14:51:15.319Z,5.62
2019-04-16T14:54:01.028Z,5.87
2019-04-16T14:56:39.860Z,5.97
2019-04-16T14:59:33.485Z,5.75
2019-04-16T15:02:14.102Z,5.75
2019-04-16T15:04:59.713Z,6.28
2019-04-16T15:07:49.378Z,6.05
2019-04-16T15:10:42.542Z,5.67
2019-04-16T15:13:35.575Z,5.40
2019-04-16T15:16:25.326Z,5.97
2019-04-16T15:19:21.256Z,5.67
2019-04-16T15:22:06.719Z,5.80
2019-04-16T15:24:47.570Z,5.55
2019-04-16T15:27:33.373Z,5.45
2019-04-16T15:30:28.354Z,5.78
2019-04-16T15:33:18.613Z,5.67
2019-04-16T15:35:56.175Z,8.83
2019-04-16T15:38:42.200Z,8.30
2019-04-16T15:44:05.673Z,12.58
2019-04-16T15:46:59.812Z,6.08
2019-04-16T15:49:49.529Z,6.03
2019-04-16T15:52:46.274Z,9.38
2019-04-16T15:55:31.526Z,5.95
2019-04-16T15:58:21.150Z,6.12
2019-04-16T16:01:01.543Z,34.50
2019-04-16T16:03:57.391Z,25.85
2019-04-16T16:06:26.668Z,10.78
2019-04-16T16:08:59.387Z,12.65
2019-04-16T16:11:36.443Z,6.28
2019-04-16T16:14:03.531Z,5.70
2019-04-16T16:16:41.784Z,17.85
2019-04-16T16:19:01.090Z,16.95
2019-04-16T16:21:28.986Z,12.03
2019-04-16T16:23:56.971Z,17.40
2019-04-16T16:26:24.963Z,6.17
2019-04-16T16:28:52.931Z,9.25
2019-04-16T16:31:20.884Z,6.85
2019-04-16T16:33:48.952Z,5.87
2019-04-16T16:36:16.944Z,5.60
2019-04-16T16:38:48.296Z,5.22
2019-04-16T16:41:14.560Z,5.10
2019-04-16T16:43:43.836Z,5.30
2019-04-16T16:46:19.792Z,4.90
2019-04-16T16:48:48.374Z,5.17
2019-04-16T16:51:16.283Z,5.30
2019-04-16T16:53:54.488Z,5.25
2019-04-16T16:56:41.454Z,5.53
2019-04-16T16:59:25.227Z,5.10
2019-04-16T17:02:14.943Z,5.03
2019-04-16T17:04:45.308Z,5.20
2019-04-16T17:07:13.312Z,5.17
2019-04-16T17:09:41.290Z,4.75
2019-04-16T17:12:09.195Z,5.22
2019-04-16T17:14:38.065Z,4.95
2019-04-16T17:17:13.877Z,5.22
2019-04-16T17:19:36.923Z,4.37
2019-04-16T17:22:05.195Z,3.62
2019-04-16T17:24:33.188Z,3.77
2019-04-16T17:27:01.123Z,3.52
2019-04-16T17:29:28.994Z,3.60
2019-04-16T17:31:56.991Z,2.80
2019-04-16T17:34:24.940Z,2.30
2019-04-16T17:36:52.839Z,2.10
2019-04-16T17:39:36.246Z,2.30
2019-04-16T17:42:05.601Z,2.00
2019-04-16T17:44:53.168Z,2.30
2019-04-16T17:47:32.357Z,2.00
2019-04-16T17:50:04.935Z,2.10
2019-04-16T17:52:47.362Z,2.00
2019-04-16T17:55:31.986Z,2.00
2019-04-16T17:58:05.380Z,2.10
2019-04-16T18:00:57.333Z,2.05
2019-04-16T18:03:53.550Z,7.33
2019-04-16T18:09:35.497Z,6.55
2019-04-16T18:15:00.873Z,5.17
2019-04-16T18:17:48.912Z,4.12
2019-04-16T18:20:26.905Z,3.92
2019-04-16T18:23:04.786Z,4.00
2019-04-16T18:25:56.492Z,8.48
2019-04-16T18:28:26.008Z,3.83
2019-04-16T18:31:08.640Z,3.70
2019-04-16T18:33:47.649Z,3.87
2019-04-16T18:36:31.219Z,3.87
2019-04-16T18:39:20.995Z,4.00
2019-04-16T18:42:16.985Z,3.55
2019-04-16T18:45:09.090Z,3.52
2019-04-16T18:47:44.335Z,4.78
2019-04-16T18:50:14.636Z,4.28
2019-04-16T18:52:42.554Z,3.90
2019-04-16T18:55:10.475Z,3.55
2019-04-16T18:57:39.238Z,3.70
2019-04-16T19:00:15.482Z,3.60
2019-04-16T19:02:43.688Z,3.47
2019-04-16T19:05:11.660Z,3.15
2019-04-16T19:07:39.701Z,3.75
2019-04-16T19:10:07.674Z,3.45
2019-04-16T19:12:35.611Z,3.50
2019-04-16T19:15:03.586Z,3.52
2019-04-16T19:17:31.562Z,3.80
2019-04-16T19:20:03.344Z,3.72
2019-04-16T19:22:29.320Z,3.80
2019-04-16T19:24:57.355Z,3.30
2019-04-16T19:27:27.901Z,3.92
2019-04-16T19:29:55.224Z,3.85
2019-04-16T19:32:42.120Z,3.35
2019-04-16T19:35:14.387Z,3.47
2019-04-16T19:37:39.712Z,3.22
2019-04-16T19:40:07.653Z,3.40
2019-04-16T19:42:35.648Z,3.45
2019-04-16T19:45:03.614Z,3.27
2019-04-16T19:47:35.100Z,3.70
2019-04-16T19:50:01.394Z,3.52
2019-04-16T19:52:29.287Z,4.15
2019-04-16T19:54:57.325Z,4.20
2019-04-16T19:57:25.345Z,3.62
2019-04-16T19:59:53.311Z,4.15
2019-04-16T20:02:21.292Z,3.75
2019-04-16T20:04:50.920Z,3.90
2019-04-16T20:07:19.085Z,3.85
2019-04-16T20:09:47.145Z,4.10
2019-04-16T20:12:15.099Z,4.00
2019-04-16T20:14:43.176Z,3.50
2019-04-16T20:17:11.213Z,3.50
2019-04-16T20:19:57.747Z,3.67
2019-04-16T20:22:25.766Z,4.20
2019-04-16T20:24:53.810Z,4.33
2019-04-16T20:27:22.007Z,4.90
2019-04-16T20:29:50.116Z,4.28
2019-04-16T20:32:18.299Z,3.52
2019-04-16T20:34:46.356Z,4.33
2019-04-16T20:37:14.338Z,4.30
2019-04-16T20:39:42.341Z,4.50
2019-04-16T20:42:10.380Z,4.47
2019-04-16T20:44:38.357Z,4.08
2019-04-16T20:47:08.571Z,3.70
2019-04-16T20:49:36.064Z,3.92
2019-04-16T20:52:04.215Z,4.35
2019-04-16T20:54:32.299Z,4.10
2019-04-16T20:57:00.299Z,3.80
2019-04-16T20:59:28.359Z,3.90
2019-04-16T21:01:56.391Z,3.47
2019-04-16T21:04:24.358Z,4.05
2019-04-16T21:06:52.237Z,3.40
2019-04-16T21:09:20.145Z,3.80
2019-04-16T21:11:48.120Z,3.47
2019-04-16T21:14:18.862Z,3.10
2019-04-16T21:16:45.778Z,3.47
2019-04-16T21:19:22.859Z,3.70
2019-04-16T21:21:43.462Z,3.50
2019-04-16T21:24:14.251Z,3.90
2019-04-16T21:26:42.152Z,4.35
2019-04-16T21:29:24.804Z,3.70
2019-04-16T21:31:57.027Z,3.60
2019-04-16T21:34:37.541Z,3.98
2019-04-16T21:37:27.500Z,3.90
2019-04-16T21:39:57.959Z,3.30
2019-04-16T21:42:34.237Z,4.00
2019-04-16T21:45:00.104Z,4.20
2019-04-16T21:47:28.229Z,3.90
2019-04-16T21:49:56.341Z,3.90
2019-04-16T21:52:24.359Z,3.42
2019-04-16T21:54:52.309Z,3.33
2019-04-16T21:57:20.311Z,3.35
2019-04-16T21:59:50.324Z,3.95
2019-04-16T22:02:26.155Z,3.62
2019-04-16T22:04:54.207Z,3.52
2019-04-16T22:07:24.726Z,3.62
2019-04-16T22:09:51.800Z,3.92
2019-04-16T22:12:19.789Z,4.10
2019-04-16T22:14:47.843Z,4.60
2019-04-16T22:17:15.807Z,4.17
2019-04-16T22:19:53.803Z,4.15
2019-04-16T22:22:14.984Z,4.83
2019-04-16T22:24:45.292Z,4.42
2019-04-16T22:27:13.628Z,4.03
2019-04-16T22:29:44.636Z,3.65
2019-04-16T22:32:11.222Z,3.52
2019-04-16T22:34:39.174Z,4.17
2019-04-16T22:37:07.205Z,4.03
2019-04-16T22:39:51.244Z,4.08
2019-04-16T22:42:40.214Z,4.03
2019-04-16T22:45:18.677Z,3.98
2019-04-16T22:47:47.267Z,3.92
2019-04-16T22:50:17.315Z,3.70
2019-04-16T22:52:46.143Z,3.33
2019-04-16T22:55:14.269Z,3.90
2019-04-16T22:57:42.204Z,3.47
2019-04-16T23:00:20.355Z,3.20
2019-04-16T23:02:48.933Z,3.80
2019-04-16T23:05:17.065Z,3.77
2019-04-16T23:07:45.047Z,3.95
2019-04-16T23:10:12.972Z,3.95
2019-04-16T23:12:40.957Z,4.53
2019-04-16T23:15:10.486Z,3.70
2019-04-16T23:17:38.378Z,3.65
2019-04-16T23:20:06.525Z,3.65
2019-04-16T23:22:34.458Z,2.87
2019-04-16T23:25:02.346Z,3.87
2019-04-16T23:27:30.296Z,6.17
2019-04-16T23:29:58.613Z,5.40
2019-04-16T23:32:28.706Z,5.12
2019-04-16T23:34:56.138Z,5.53
2019-04-16T23:37:24.182Z,4.70
2019-04-16T23:39:52.080Z,4.30
2019-04-16T23:42:20.036Z,3.60
2019-04-16T23:45:16.276Z,3.42
2019-04-16T23:48:05.984Z,3.15
2019-04-16T23:50:45.227Z,3.20
2019-04-16T23:53:18.226Z,3.00
2019-04-16T23:59:01.358Z,4.30
